createdAt,value
2018-02-08T00:00:43.576Z,49.03
2018-02-08T00:03:11.028Z,46.53
2018-02-08T00:05:38.464Z,52.10
2018-02-08T00:08:05.962Z,41.03
2018-02-08T00:10:33.386Z,41.80
2018-02-08T00:13:00.828Z,40.77
2018-02-08T00:15:29.140Z,38.40
2018-02-08T00:17:56.572Z,35.77
2018-02-08T00:20:24.063Z,40.07
2018-02-08T00:22:51.508Z,37.43
2018-02-08T00:25:18.952Z,36.97
2018-02-08T00:27:46.385Z,35.43
2018-02-08T00:30:13.828Z,36.87
2018-02-08T00:32:42.032Z,37.27
2018-02-08T00:35:09.500Z,41.40
2018-02-08T00:37:36.949Z,38.77
2018-02-08T00:40:04.385Z,42.60
2018-02-08T00:42:31.811Z,40.67
2018-02-08T00:44:59.328Z,37.80
2018-02-08T00:47:26.784Z,43.80
2018-02-08T00:49:54.214Z,49.70
2018-02-08T00:52:21.663Z,45.07
2018-02-08T00:54:49.158Z,46.33
2018-02-08T00:57:16.613Z,41.00
2018-02-08T00:59:44.060Z,38.63
2018-02-08T01:02:11.505Z,38.00
2018-02-08T01:04:38.940Z,42.27
2018-02-08T01:07:07.264Z,36.90
2018-02-08T01:09:34.724Z,40.27
2018-02-08T01:12:02.269Z,44.67
2018-02-08T01:14:29.740Z,34.70
2018-02-08T01:16:57.183Z,39.37
2018-02-08T01:19:24.626Z,42.60
2018-02-08T01:21:52.107Z,41.67
2018-02-08T01:24:19.552Z,42.63
2018-02-08T01:26:47.140Z,42.53
2018-02-08T01:29:14.785Z,42.83
2018-02-08T01:31:42.245Z,36.70
2018-02-08T01:34:09.696Z,41.70
2018-02-08T01:36:37.263Z,43.00
2018-02-08T01:39:04.703Z,43.50
2018-02-08T01:41:32.182Z,39.57
2018-02-08T01:43:59.787Z,42.10
2018-02-08T01:46:28.032Z,40.47
2018-02-08T01:48:55.714Z,40.83
2018-02-08T01:51:23.151Z,39.67
2018-02-08T01:53:50.708Z,36.87
2018-02-08T01:56:18.147Z,38.23
2018-02-08T01:58:45.696Z,35.23
2018-02-08T02:01:13.160Z,43.77
2018-02-08T02:03:40.611Z,44.07
2018-02-08T02:06:08.076Z,46.03
2018-02-08T02:08:35.556Z,41.27
2018-02-08T02:11:02.996Z,45.20
2018-02-08T02:13:30.580Z,40.03
2018-02-08T02:15:58.009Z,42.60
2018-02-08T02:18:25.552Z,46.63
2018-02-08T02:20:53.124Z,39.53
2018-02-08T02:23:20.556Z,44.30
2018-02-08T02:25:48.042Z,47.60
2018-02-08T02:28:15.684Z,38.70
2018-02-08T02:30:43.096Z,44.83
2018-02-08T02:33:11.320Z,48.73
2018-02-08T02:35:38.774Z,44.83
2018-02-08T02:38:06.239Z,47.60
2018-02-08T02:40:33.670Z,45.20
2018-02-08T02:43:01.112Z,46.00
2018-02-08T02:45:28.540Z,45.90
2018-02-08T02:47:55.977Z,44.57
2018-02-08T02:50:23.508Z,45.07
2018-02-08T02:52:50.978Z,46.90
2018-02-08T02:55:18.411Z,46.23
2018-02-08T02:57:46.003Z,45.33
2018-02-08T03:00:13.438Z,50.57
2018-02-08T03:02:40.874Z,49.57
2018-02-08T03:05:08.316Z,46.40
2018-02-08T03:07:36.517Z,44.17
2018-02-08T03:10:03.992Z,45.83
2018-02-08T03:12:31.432Z,48.90
2018-02-08T03:14:58.875Z,49.60
2018-02-08T03:17:26.312Z,47.27
2018-02-08T03:19:54.564Z,50.23
2018-02-08T03:22:21.997Z,47.13
2018-02-08T03:24:49.432Z,44.13
2018-02-08T03:27:16.901Z,48.93
2018-02-08T03:29:44.310Z,51.10
2018-02-08T03:32:11.740Z,49.83
2018-02-08T03:34:39.193Z,46.07
2018-02-08T03:37:06.633Z,45.20
2018-02-08T03:39:34.094Z,52.77
2018-02-08T03:42:01.660Z,52.00
2018-02-08T03:44:29.100Z,45.87
2018-02-08T03:46:56.531Z,46.90
2018-02-08T03:49:24.747Z,56.07
2018-02-08T03:51:52.196Z,44.00
2018-02-08T03:54:19.636Z,51.73
2018-02-08T03:56:47.090Z,49.60
2018-02-08T03:59:14.666Z,49.03
2018-02-08T04:01:42.084Z,50.13
2018-02-08T04:04:10.427Z,44.37
2018-02-08T04:06:37.971Z,52.00
2018-02-08T04:09:05.519Z,46.73
2018-02-08T04:11:32.995Z,51.53
2018-02-08T04:14:00.536Z,55.37
2018-02-08T04:16:27.943Z,47.80
2018-02-08T04:18:55.600Z,48.27
2018-02-08T04:21:23.040Z,47.33
2018-02-08T04:23:50.479Z,47.73
2018-02-08T04:26:17.936Z,48.67
2018-02-08T04:28:45.396Z,45.13
2018-02-08T04:31:12.835Z,47.20
2018-02-08T04:33:40.302Z,48.83
2018-02-08T04:36:07.739Z,48.70
2018-02-08T04:38:47.163Z,50.60
2018-02-08T04:41:27.385Z,48.03
2018-02-08T04:44:16.623Z,45.23
2018-02-08T04:47:07.018Z,44.57
2018-02-08T04:49:34.476Z,51.57
2018-02-08T04:52:01.926Z,57.57
2018-02-08T04:54:29.389Z,51.77
2018-02-08T04:56:56.876Z,52.57
2018-02-08T04:59:24.403Z,54.93
2018-02-08T05:01:51.851Z,51.60
2018-02-08T05:04:19.412Z,54.43
2018-02-08T05:06:46.876Z,59.13
2018-02-08T05:09:14.337Z,54.50
2018-02-08T05:11:41.781Z,51.40
2018-02-08T05:14:09.212Z,50.53
2018-02-08T05:16:36.712Z,47.23
2018-02-08T05:19:04.253Z,50.20
2018-02-08T05:21:31.730Z,50.43
2018-02-08T05:23:59.170Z,54.63
2018-02-08T05:26:26.739Z,52.37
2018-02-08T05:28:54.171Z,49.50
2018-02-08T05:31:21.596Z,56.50
2018-02-08T05:33:49.049Z,49.77
2018-02-08T05:36:16.561Z,48.77
2018-02-08T05:38:44.036Z,49.23
2018-02-08T05:41:11.585Z,54.77
2018-02-08T05:43:39.020Z,51.23
2018-02-08T05:46:06.500Z,49.23
2018-02-08T05:48:33.975Z,47.17
2018-02-08T05:51:01.524Z,54.10
2018-02-08T05:53:28.959Z,56.23
2018-02-08T05:55:56.396Z,50.53
2018-02-08T05:58:24.598Z,52.27
2018-02-08T06:00:52.028Z,52.73
2018-02-08T06:03:19.468Z,51.17
2018-02-08T06:05:47.693Z,55.60
2018-02-08T06:08:15.154Z,53.43
2018-02-08T06:10:42.701Z,53.37
2018-02-08T06:13:10.172Z,50.27
2018-02-08T06:15:37.604Z,51.07
2018-02-08T06:18:05.052Z,53.87
2018-02-08T06:20:32.484Z,53.53
2018-02-08T06:23:00.089Z,50.53
2018-02-08T06:25:27.560Z,48.17
2018-02-08T06:27:55.007Z,48.17
2018-02-08T06:30:22.431Z,52.23
2018-02-08T06:32:49.872Z,53.37
2018-02-08T06:35:18.109Z,52.03
2018-02-08T06:37:45.569Z,54.97
2018-02-08T06:40:13.122Z,52.40
2018-02-08T06:42:40.555Z,57.97
2018-02-08T06:45:07.984Z,53.27
2018-02-08T06:47:36.795Z,55.13
2018-02-08T06:50:04.220Z,47.83
2018-02-08T06:52:32.453Z,47.60
2018-02-08T06:54:59.897Z,58.63
2018-02-08T06:57:27.377Z,51.27
2018-02-08T06:59:54.812Z,46.30
2018-02-08T07:02:22.252Z,51.87
2018-02-08T07:04:49.743Z,50.27
2018-02-08T07:07:17.168Z,50.17
2018-02-08T07:09:44.650Z,49.27
2018-02-08T07:12:12.111Z,47.37
2018-02-08T07:14:39.540Z,46.10
2018-02-08T07:17:06.988Z,51.30
2018-02-08T07:19:34.449Z,47.80
2018-02-08T07:22:01.884Z,46.57
2018-02-08T07:24:30.204Z,47.90
2018-02-08T07:26:57.616Z,43.70
2018-02-08T07:29:25.120Z,44.30
2018-02-08T07:31:52.547Z,40.93
2018-02-08T07:34:20.853Z,49.30
2018-02-08T07:36:48.309Z,43.00
2018-02-08T07:39:15.730Z,45.90
2018-02-08T07:41:43.954Z,43.43
2018-02-08T07:44:11.412Z,48.07
2018-02-08T07:46:38.858Z,48.60
2018-02-08T07:49:06.336Z,51.60
2018-02-08T07:51:33.756Z,51.73
2018-02-08T07:54:01.237Z,45.27
2018-02-08T07:56:28.663Z,48.83
2018-02-08T07:58:56.152Z,44.10
2018-02-08T08:01:23.592Z,46.90
2018-02-08T08:03:51.075Z,43.60
2018-02-08T08:06:18.511Z,46.83
2018-02-08T08:08:45.983Z,48.37
2018-02-08T08:11:13.415Z,43.67
2018-02-08T08:13:40.852Z,43.23
2018-02-08T08:16:09.070Z,38.63
2018-02-08T08:18:36.504Z,41.73
2018-02-08T08:21:03.977Z,45.23
2018-02-08T08:23:31.599Z,38.60
2018-02-08T08:25:59.788Z,43.43
2018-02-08T08:28:27.273Z,41.47
2018-02-08T08:30:54.754Z,40.23
2018-02-08T08:33:22.184Z,43.33
2018-02-08T08:35:49.612Z,43.93
2018-02-08T08:38:17.058Z,43.20
2018-02-08T08:40:45.254Z,41.57
2018-02-08T08:43:12.687Z,43.07
2018-02-08T08:45:40.900Z,46.13
2018-02-08T08:48:08.331Z,40.20
2018-02-08T08:50:35.768Z,41.67
2018-02-08T08:53:03.277Z,41.77
2018-02-08T08:55:30.720Z,42.07
2018-02-08T08:57:58.188Z,43.80
2018-02-08T09:00:25.659Z,39.23
2018-02-08T09:02:53.090Z,41.03
2018-02-08T09:05:20.567Z,37.77
2018-02-08T09:07:48.019Z,39.23
2018-02-08T09:10:15.482Z,37.33
2018-02-08T09:12:42.916Z,36.33
2018-02-08T09:15:10.365Z,39.27
2018-02-08T09:17:37.820Z,41.33
2018-02-08T09:20:05.304Z,41.20
2018-02-08T09:22:32.754Z,41.53
2018-02-08T09:25:00.179Z,39.90
2018-02-08T09:27:28.408Z,44.53
2018-02-08T09:29:55.845Z,41.93
2018-02-08T09:32:23.312Z,40.43
2018-02-08T09:34:50.740Z,36.47
2018-02-08T09:37:19.035Z,41.30
2018-02-08T09:39:46.459Z,41.50
2018-02-08T09:42:13.958Z,39.93
2018-02-08T09:44:41.412Z,34.27
2018-02-08T09:47:08.876Z,40.37
2018-02-08T09:49:36.323Z,34.70
2018-02-08T09:52:03.792Z,38.10
2018-02-08T09:54:32.005Z,36.80
2018-02-08T09:56:59.432Z,41.20
2018-02-08T09:59:27.739Z,41.17
2018-02-08T10:01:55.151Z,43.03
2018-02-08T10:04:23.352Z,37.87
2018-02-08T10:06:50.930Z,38.77
2018-02-08T10:09:18.352Z,39.43
2018-02-08T10:11:46.563Z,41.30
2018-02-08T10:14:14.000Z,41.90
2018-02-08T10:16:41.432Z,44.70
2018-02-08T10:19:09.634Z,40.57
2018-02-08T10:21:37.111Z,39.70
2018-02-08T10:24:04.568Z,37.63
2018-02-08T10:26:32.024Z,33.57
2018-02-08T10:28:59.475Z,37.77
2018-02-08T10:31:26.909Z,36.67
2018-02-08T10:33:55.124Z,34.37
2018-02-08T10:36:22.564Z,37.97
2018-02-08T10:38:49.996Z,35.70
2018-02-08T10:41:17.587Z,34.57
2018-02-08T10:43:45.048Z,37.33
2018-02-08T10:46:12.490Z,42.57
2018-02-08T10:48:39.915Z,34.60
2018-02-08T10:51:08.125Z,40.10
2018-02-08T10:53:35.549Z,38.90
2018-02-08T10:56:03.773Z,37.30
2018-02-08T10:58:31.218Z,40.07
2018-02-08T11:00:58.645Z,35.30
2018-02-08T11:03:26.860Z,35.60
2018-02-08T11:05:54.343Z,34.00
2018-02-08T11:08:21.768Z,44.60
2018-02-08T11:10:49.218Z,38.93
2018-02-08T11:13:16.641Z,35.67
2018-02-08T11:15:44.863Z,38.03
2018-02-08T11:18:12.296Z,38.37
2018-02-08T11:20:39.763Z,39.20
2018-02-08T11:23:07.177Z,43.37
2018-02-08T11:25:35.498Z,35.40
2018-02-08T11:28:02.960Z,39.23
2018-02-08T11:30:30.396Z,38.40
2018-02-08T11:32:57.880Z,36.67
2018-02-08T11:35:25.364Z,35.70
2018-02-08T11:37:52.800Z,40.47
2018-02-08T11:40:20.248Z,34.27
2018-02-08T11:42:47.696Z,36.10
2018-02-08T11:45:15.133Z,36.70
2018-02-08T11:47:42.565Z,34.97
2018-02-08T11:50:10.888Z,34.73
2018-02-08T11:52:38.350Z,39.33
2018-02-08T11:55:05.810Z,39.43
2018-02-08T11:57:33.365Z,35.50
2018-02-08T12:00:00.772Z,30.97
2018-02-08T12:02:28.964Z,28.07
2018-02-08T12:04:56.420Z,27.57
2018-02-08T12:07:24.623Z,29.87
2018-02-08T12:09:52.100Z,29.87
2018-02-08T12:12:19.547Z,27.97
2018-02-08T12:14:47.009Z,22.67
2018-02-08T12:17:14.433Z,25.60
2018-02-08T12:19:41.873Z,20.70
2018-02-08T12:22:10.082Z,25.13
2018-02-08T12:24:37.504Z,24.03
2018-02-08T12:27:05.713Z,22.23
2018-02-08T12:29:33.136Z,26.47
2018-02-08T12:32:01.366Z,29.00
2018-02-08T12:34:28.854Z,28.10
2018-02-08T12:36:56.242Z,26.67
2018-02-08T12:39:23.736Z,26.83
2018-02-08T12:41:51.280Z,26.23
2018-02-08T12:44:18.716Z,26.13
2018-02-08T12:46:46.144Z,27.07
2018-02-08T12:49:14.372Z,28.30
2018-02-08T12:51:41.807Z,31.07
2018-02-08T12:54:09.231Z,33.80
2018-02-08T12:56:37.459Z,31.90
2018-02-08T12:59:04.920Z,34.83
2018-02-08T13:01:32.356Z,36.93
2018-02-08T13:03:59.789Z,33.07
2018-02-08T13:06:27.980Z,36.10
2018-02-08T13:08:55.467Z,33.33
2018-02-08T13:11:22.909Z,31.17
2018-02-08T13:13:50.433Z,31.53
2018-02-08T13:16:17.812Z,26.90
2018-02-08T13:18:45.300Z,29.73
2018-02-08T13:21:12.845Z,35.13
2018-02-08T13:23:40.348Z,33.23
2018-02-08T13:26:07.878Z,31.50
2018-02-08T13:28:35.300Z,31.80
2018-02-08T13:31:02.734Z,27.50
2018-02-08T13:33:30.940Z,29.13
2018-02-08T13:35:58.360Z,31.50
2018-02-08T13:38:26.580Z,35.60
2018-02-08T13:40:55.529Z,33.27
2018-02-08T13:43:23.751Z,29.47
2018-02-08T13:45:51.188Z,31.33
2018-02-08T13:48:33.416Z,32.00
2018-02-08T13:51:20.683Z,26.77
2018-02-08T13:53:54.573Z,26.57
2018-02-08T13:56:36.880Z,26.83
2018-02-08T13:59:21.122Z,25.87
2018-02-08T14:01:51.014Z,28.20
2018-02-08T14:04:18.567Z,27.90
2018-02-08T14:06:45.980Z,25.47
2018-02-08T14:09:17.918Z,24.57
2018-02-08T14:11:45.349Z,23.17
2018-02-08T14:14:12.903Z,22.20
2018-02-08T14:16:40.463Z,21.40
2018-02-08T14:19:07.872Z,23.77
2018-02-08T14:21:36.076Z,24.93
2018-02-08T14:24:03.549Z,27.10
2018-02-08T14:26:30.952Z,24.83
2018-02-08T14:28:59.160Z,26.87
2018-02-08T14:31:26.637Z,27.13
2018-02-08T14:33:54.092Z,28.20
2018-02-08T14:36:21.536Z,26.27
2018-02-08T14:38:48.960Z,30.20
2018-02-08T14:41:17.167Z,29.77
2018-02-08T14:43:44.648Z,28.60
2018-02-08T14:46:12.104Z,31.00
2018-02-08T14:48:39.540Z,28.50
2018-02-08T14:51:06.977Z,30.70
2018-02-08T14:53:35.171Z,29.27
2018-02-08T14:56:02.600Z,31.53
2018-02-08T14:58:30.801Z,31.80
2018-02-08T15:00:58.379Z,29.03
2018-02-08T15:03:25.816Z,30.40
2018-02-08T15:05:53.521Z,36.50
2018-02-08T15:08:20.950Z,34.63
2018-02-08T15:10:48.386Z,29.80
2018-02-08T15:13:15.844Z,33.13
2018-02-08T15:15:43.280Z,28.60
2018-02-08T15:18:11.477Z,31.40
2018-02-08T15:20:38.919Z,30.50
2018-02-08T15:23:07.122Z,33.03
2018-02-08T15:25:34.599Z,31.27
2018-02-08T15:28:02.048Z,37.77
2018-02-08T15:30:29.468Z,30.67
2018-02-08T15:32:57.668Z,33.00
2018-02-08T15:35:25.124Z,32.17
2018-02-08T15:37:52.551Z,30.07
2018-02-08T15:40:20.753Z,31.53
2018-02-08T15:42:48.251Z,32.90
2018-02-08T15:45:15.674Z,32.07
2018-02-08T15:47:43.144Z,32.60
2018-02-08T15:50:10.592Z,30.80
2018-02-08T15:52:38.047Z,35.67
2018-02-08T15:55:05.480Z,40.63
2018-02-08T15:57:33.782Z,35.67
2018-02-08T16:00:01.200Z,36.43
2018-02-08T16:02:29.419Z,31.97
2018-02-08T16:04:56.897Z,35.33
2018-02-08T16:07:24.327Z,35.97
2018-02-08T16:09:51.761Z,35.67
2018-02-08T16:12:19.207Z,34.20
2018-02-08T16:14:47.436Z,31.93
2018-02-08T16:17:14.874Z,39.57
2018-02-08T16:19:42.344Z,38.33
2018-02-08T16:22:09.772Z,33.50
2018-02-08T16:24:37.347Z,38.43
2018-02-08T16:27:04.812Z,40.90
2018-02-08T16:29:32.271Z,41.70
2018-02-08T16:31:59.715Z,42.80
2018-02-08T16:34:27.285Z,43.57
2018-02-08T16:36:54.728Z,46.63
2018-02-08T16:39:22.136Z,43.30
2018-02-08T16:41:49.585Z,39.40
2018-02-08T16:44:18.585Z,47.17
2018-02-08T16:46:45.960Z,43.90
2018-02-08T16:49:14.289Z,49.97
2018-02-08T16:51:41.724Z,36.13
2018-02-08T16:54:09.203Z,41.50
2018-02-08T16:56:36.792Z,42.63
2018-02-08T16:59:04.240Z,52.13
2018-02-08T17:01:31.612Z,47.93
2018-02-08T17:03:59.061Z,46.10
2018-02-08T17:06:26.528Z,49.37
2018-02-08T17:08:53.981Z,39.10
2018-02-08T17:11:21.530Z,50.77
2018-02-08T17:13:48.959Z,42.50
2018-02-08T17:16:16.394Z,43.30
2018-02-08T17:18:44.868Z,43.97
2018-02-08T17:21:12.302Z,44.97
2018-02-08T17:23:39.773Z,43.10
2018-02-08T17:26:07.982Z,45.57
2018-02-08T17:28:35.449Z,40.50
2018-02-08T17:31:02.873Z,46.60
2018-02-08T17:33:30.312Z,43.73
2018-02-08T17:35:58.530Z,42.60
2018-02-08T17:38:25.964Z,43.20
2018-02-08T17:40:53.420Z,43.97
2018-02-08T17:43:20.856Z,41.10
2018-02-08T17:45:49.179Z,46.77
2018-02-08T17:48:16.637Z,46.40
2018-02-08T17:50:44.044Z,46.60
2018-02-08T17:53:12.271Z,50.53
2018-02-08T17:55:39.752Z,46.60
2018-02-08T17:58:07.176Z,48.77
2018-02-08T18:00:34.679Z,50.97
2018-02-08T18:03:02.116Z,50.93
2018-02-08T18:05:29.548Z,53.47
2018-02-08T18:07:56.976Z,56.60
2018-02-08T18:10:24.465Z,54.73
2018-02-08T18:12:51.896Z,45.00
2018-02-08T18:15:19.346Z,50.40
2018-02-08T18:17:47.544Z,50.23
2018-02-08T18:20:15.035Z,51.37
2018-02-08T18:22:42.462Z,57.10
2018-02-08T18:25:09.944Z,56.57
2018-02-08T18:27:37.372Z,57.47
2018-02-08T18:30:04.797Z,53.60
2018-02-08T18:32:33.124Z,62.90
2018-02-08T18:35:00.550Z,51.47
2018-02-08T18:37:27.979Z,59.80
2018-02-08T18:39:56.202Z,58.67
2018-02-08T18:42:23.668Z,54.07
2018-02-08T18:44:51.189Z,56.60
2018-02-08T18:47:18.669Z,54.03
2018-02-08T18:49:46.084Z,54.97
2018-02-08T18:52:14.308Z,56.27
2018-02-08T18:54:41.757Z,55.57
2018-02-08T18:57:09.240Z,59.23
2018-02-08T18:59:36.800Z,61.83
2018-02-08T19:02:04.240Z,61.27
2018-02-08T19:04:31.699Z,60.80
2018-02-08T19:06:59.256Z,60.67
2018-02-08T19:09:26.732Z,62.93
2018-02-08T19:11:54.168Z,59.27
2018-02-08T19:14:21.633Z,67.03
2018-02-08T19:16:49.085Z,64.10
2018-02-08T19:19:16.531Z,65.27
2018-02-08T19:21:43.957Z,61.20
2018-02-08T19:24:12.277Z,60.17
2018-02-08T19:26:39.768Z,64.53
2018-02-08T19:29:07.200Z,69.78
2018-02-08T19:31:34.646Z,66.40
2018-02-08T19:34:02.095Z,67.50
2018-02-08T19:36:29.507Z,67.40
2018-02-08T19:38:57.720Z,63.77
2018-02-08T19:41:25.139Z,63.80
2018-02-08T19:43:53.384Z,61.20
2018-02-08T19:46:20.966Z,71.37
2018-02-08T19:48:48.584Z,65.33
2018-02-08T19:51:15.993Z,65.13
2018-02-08T19:53:44.208Z,70.70
2018-02-08T19:56:11.636Z,67.90
2018-02-08T19:58:39.844Z,65.77
2018-02-08T20:01:07.308Z,76.07
2018-02-08T20:03:34.857Z,73.13
2018-02-08T20:06:02.264Z,69.17
2018-02-08T20:08:29.808Z,60.40
2018-02-08T20:10:57.184Z,75.60
2018-02-08T20:13:25.409Z,72.87
2018-02-08T20:15:52.864Z,80.03
2018-02-08T20:18:20.329Z,83.67
2018-02-08T20:20:47.790Z,77.73
2018-02-08T20:23:15.235Z,77.80
2018-02-08T20:25:42.666Z,76.73
2018-02-08T20:28:10.091Z,74.60
2018-02-08T20:30:37.536Z,78.57
2018-02-08T20:33:04.968Z,80.23
2018-02-08T20:35:32.400Z,76.57
2018-02-08T20:37:59.884Z,81.83
2018-02-08T20:40:29.906Z,89.10
2018-02-08T20:43:02.952Z,85.23
2018-02-08T20:45:30.397Z,90.87
2018-02-08T20:47:58.619Z,79.47
2018-02-08T20:50:26.065Z,83.33
2018-02-08T20:52:53.504Z,81.57
2018-02-08T20:55:20.952Z,91.67
2018-02-08T20:57:49.169Z,101.83
2018-02-08T21:00:16.620Z,95.30
2018-02-08T21:02:44.068Z,95.87
2018-02-08T21:05:11.536Z,103.07
2018-02-08T21:07:38.972Z,111.30
2018-02-08T21:10:06.449Z,112.20
2018-02-08T21:12:34.010Z,96.37
2018-02-08T21:15:01.441Z,97.40
2018-02-08T21:17:28.877Z,92.30
2018-02-08T21:19:57.190Z,98.57
2018-02-08T21:22:24.664Z,96.97
2018-02-08T21:24:52.128Z,101.10
2018-02-08T21:27:19.588Z,101.87
2018-02-08T21:29:47.041Z,91.90
2018-02-08T21:32:14.476Z,97.97
2018-02-08T21:34:41.951Z,92.23
2018-02-08T21:37:09.396Z,103.27
2018-02-08T21:39:36.884Z,94.17
2018-02-08T21:42:04.335Z,90.07
2018-02-08T21:44:31.877Z,98.93
2018-02-08T21:46:59.346Z,98.90
2018-02-08T21:49:26.896Z,102.53
2018-02-08T21:51:54.367Z,95.23
2018-02-08T21:54:21.806Z,107.33
2018-02-08T21:56:49.256Z,113.40
2018-02-08T21:59:16.688Z,100.27
2018-02-08T22:01:44.168Z,101.90
2018-02-08T22:04:11.620Z,102.90
2018-02-08T22:06:39.052Z,96.30
2018-02-08T22:09:06.536Z,97.10
2018-02-08T22:11:34.036Z,103.30
2018-02-08T22:14:01.569Z,92.93
2018-02-08T22:16:29.116Z,90.23
2018-02-08T22:18:56.610Z,91.23
2018-02-08T22:21:24.480Z,102.77
2018-02-08T22:23:57.883Z,106.03
2018-02-08T22:26:26.080Z,87.00
2018-02-08T22:28:53.591Z,88.73
2018-02-08T22:31:21.178Z,96.33
2018-02-08T22:33:49.501Z,96.57
2018-02-08T22:36:16.915Z,91.53
2018-02-08T22:38:45.131Z,92.77
2018-02-08T22:41:12.588Z,97.63
2018-02-08T22:43:40.085Z,93.30
2018-02-08T22:46:07.531Z,82.03
2018-02-08T22:48:34.986Z,95.63
2018-02-08T22:51:02.536Z,89.90
2018-02-08T22:53:29.991Z,86.40
2018-02-08T22:55:57.432Z,93.07
2018-02-08T22:58:24.873Z,84.57
2018-02-08T23:00:52.345Z,85.07
2018-02-08T23:03:19.855Z,81.67
2018-02-08T23:05:47.290Z,74.90
2018-02-08T23:08:14.739Z,71.37
2018-02-08T23:10:42.190Z,66.30
2018-02-08T23:13:09.616Z,73.27
2018-02-08T23:15:37.089Z,67.80
2018-02-08T23:18:04.556Z,74.37
2018-02-08T23:20:32.015Z,76.07
2018-02-08T23:22:59.463Z,65.83
2018-02-08T23:25:26.926Z,66.83
2018-02-08T23:27:54.358Z,65.27
2018-02-08T23:30:21.812Z,66.67
2018-02-08T23:32:49.256Z,72.20
2018-02-08T23:35:17.496Z,66.33
2018-02-08T23:37:44.946Z,61.33
2018-02-08T23:40:12.487Z,62.10
2018-02-08T23:42:39.920Z,59.37
2018-02-08T23:45:07.373Z,54.70
2018-02-08T23:47:34.808Z,54.93
2018-02-08T23:50:03.026Z,57.37
2018-02-08T23:52:30.505Z,58.90
2018-02-08T23:54:57.939Z,55.87
2018-02-08T23:57:25.410Z,56.43
2018-02-08T23:59:52.963Z,54.70
